createdAt,value
2018-11-07T00:00:24.709Z,19.69
2018-11-07T00:02:54.321Z,19.68
2018-11-07T00:05:23.577Z,19.68
2018-11-07T00:07:51.906Z,19.70
2018-11-07T00:10:20.209Z,19.69
2018-11-07T00:12:48.531Z,19.67
2018-11-07T00:15:17.032Z,19.67
2018-11-07T00:17:45.316Z,19.67
2018-11-07T00:20:13.709Z,19.66
2018-11-07T00:22:41.965Z,19.65
2018-11-07T00:25:11.380Z,19.64
2018-11-07T00:27:44.022Z,19.64
2018-11-07T00:30:12.488Z,19.63
2018-11-07T00:32:40.890Z,19.62
2018-11-07T00:35:10.355Z,19.62
2018-11-07T00:37:39.971Z,19.61
2018-11-07T00:40:08.524Z,19.61
2018-11-07T00:42:36.981Z,19.61
2018-11-07T00:45:12.046Z,19.62
2018-11-07T00:47:40.485Z,19.60
2018-11-07T00:50:11.291Z,19.59
2018-11-07T00:52:39.883Z,19.58
2018-11-07T00:55:08.303Z,19.58
2018-11-07T00:57:36.630Z,19.57
2018-11-07T01:00:07.882Z,19.58
2018-11-07T01:02:36.162Z,19.57
2018-11-07T01:05:04.480Z,19.58
2018-11-07T01:07:32.808Z,19.57
2018-11-07T01:10:05.872Z,19.56
2018-11-07T01:12:34.164Z,19.57
2018-11-07T01:15:02.548Z,19.55
2018-11-07T01:17:37.718Z,19.55
2018-11-07T01:20:07.260Z,19.54
2018-11-07T01:22:35.527Z,19.55
2018-11-07T01:25:03.893Z,19.53
2018-11-07T01:27:32.274Z,19.54
2018-11-07T01:30:00.572Z,19.53
2018-11-07T01:32:28.899Z,19.53
2018-11-07T01:34:57.284Z,19.53
2018-11-07T01:37:25.698Z,19.53
2018-11-07T01:39:54.023Z,19.51
2018-11-07T01:42:22.343Z,19.51
2018-11-07T01:44:50.619Z,19.50
2018-11-07T01:47:18.947Z,19.51
2018-11-07T01:49:51.917Z,19.50
2018-11-07T01:52:20.200Z,19.50
2018-11-07T01:54:48.566Z,19.49
2018-11-07T01:57:16.852Z,19.49
2018-11-07T01:59:45.167Z,19.50
2018-11-07T02:02:13.529Z,19.49
2018-11-07T02:04:41.778Z,19.47
2018-11-07T02:07:10.072Z,19.46
2018-11-07T02:09:38.439Z,19.46
2018-11-07T02:12:06.898Z,19.45
2018-11-07T02:14:53.822Z,19.47
2018-11-07T02:17:22.150Z,19.48
2018-11-07T02:19:50.472Z,19.47
2018-11-07T02:22:18.971Z,19.48
2018-11-07T02:24:47.312Z,19.47
2018-11-07T02:27:15.655Z,19.48
2018-11-07T02:29:44.009Z,19.48
2018-11-07T02:32:14.463Z,19.48
2018-11-07T02:34:42.744Z,19.47
2018-11-07T02:37:24.006Z,19.46
2018-11-07T02:39:52.313Z,19.46
2018-11-07T02:42:20.610Z,19.44
2018-11-07T02:44:50.034Z,19.43
2018-11-07T02:47:18.319Z,19.42
2018-11-07T02:49:46.702Z,19.41
2018-11-07T02:52:15.073Z,19.41
2018-11-07T02:54:43.349Z,19.39
2018-11-07T02:57:11.641Z,19.38
2018-11-07T02:59:43.282Z,19.38
2018-11-07T03:02:11.701Z,19.39
2018-11-07T03:04:39.968Z,19.38
2018-11-07T03:07:09.415Z,19.39
2018-11-07T03:09:37.883Z,19.39
2018-11-07T03:12:13.044Z,19.38
2018-11-07T03:14:41.376Z,19.37
2018-11-07T03:17:09.691Z,19.37
2018-11-07T03:19:38.053Z,19.36
2018-11-07T03:22:06.558Z,19.34
2018-11-07T03:24:34.925Z,19.33
2018-11-07T03:27:04.280Z,19.32
2018-11-07T03:29:32.565Z,19.31
2018-11-07T03:32:00.997Z,19.30
2018-11-07T03:34:29.361Z,19.30
2018-11-07T03:37:02.930Z,19.29
2018-11-07T03:39:31.237Z,19.29
2018-11-07T03:42:00.633Z,19.28
2018-11-07T03:44:28.977Z,19.27
2018-11-07T03:46:57.308Z,19.27
2018-11-07T03:49:27.909Z,19.26
2018-11-07T03:51:56.321Z,19.26
2018-11-07T03:54:24.635Z,19.26
2018-11-07T03:56:55.147Z,19.26
2018-11-07T03:59:23.513Z,19.24
2018-11-07T04:01:51.834Z,19.24
2018-11-07T04:04:20.290Z,19.23
2018-11-07T04:06:48.878Z,19.23
2018-11-07T04:09:17.234Z,19.21
2018-11-07T04:11:45.769Z,19.22
2018-11-07T04:14:14.667Z,19.20
2018-11-07T04:16:43.014Z,19.21
2018-11-07T04:19:16.206Z,19.21
2018-11-07T04:21:44.562Z,19.20
2018-11-07T04:24:22.893Z,19.20
2018-11-07T04:26:51.355Z,19.21
2018-11-07T04:29:19.737Z,19.20
2018-11-07T04:31:48.220Z,19.19
2018-11-07T04:34:16.717Z,19.20
2018-11-07T04:36:45.153Z,19.20
2018-11-07T04:39:14.069Z,19.18
2018-11-07T04:41:43.567Z,19.18
2018-11-07T04:44:11.925Z,19.17
2018-11-07T04:46:40.246Z,19.17
2018-11-07T04:49:08.610Z,19.17
2018-11-07T04:51:38.025Z,19.16
2018-11-07T04:54:06.366Z,19.16
2018-11-07T04:56:34.738Z,19.16
2018-11-07T04:59:03.123Z,19.15
2018-11-07T05:01:35.824Z,19.13
2018-11-07T05:04:04.460Z,19.13
2018-11-07T05:06:32.852Z,19.11
2018-11-07T05:09:01.274Z,19.11
2018-11-07T05:11:31.775Z,19.10
2018-11-07T05:14:00.178Z,19.09
2018-11-07T05:16:28.543Z,19.12
2018-11-07T05:18:56.934Z,19.11
2018-11-07T05:21:25.303Z,19.11
2018-11-07T05:23:53.675Z,19.11
2018-11-07T05:26:22.171Z,19.10
2018-11-07T05:28:50.461Z,19.09
2018-11-07T05:31:18.802Z,19.09
2018-11-07T05:33:47.105Z,19.08
2018-11-07T05:36:15.562Z,19.07
2018-11-07T05:38:44.068Z,19.08
2018-11-07T05:41:12.497Z,19.07
2018-11-07T05:43:42.813Z,19.07
2018-11-07T05:46:18.148Z,19.06
2018-11-07T05:48:46.554Z,19.06
2018-11-07T05:51:14.872Z,19.06
2018-11-07T05:53:43.378Z,19.04
2018-11-07T05:56:14.880Z,19.04
2018-11-07T05:58:43.243Z,19.03
2018-11-07T06:01:11.710Z,19.04
2018-11-07T06:03:42.162Z,19.03
2018-11-07T06:09:00.693Z,19.03
2018-11-07T06:11:31.084Z,19.02
2018-11-07T06:14:03.692Z,19.02
2018-11-07T06:16:35.436Z,19.03
2018-11-07T06:19:15.900Z,19.01
2018-11-07T06:21:44.411Z,19.01
2018-11-07T06:24:13.111Z,19.01
2018-11-07T06:26:41.362Z,19.01
2018-11-07T06:29:09.687Z,18.99
2018-11-07T06:31:38.046Z,18.99
2018-11-07T06:34:06.449Z,19.00
2018-11-07T06:36:34.726Z,18.99
2018-11-07T06:39:03.127Z,18.99
2018-11-07T06:41:31.456Z,18.98
2018-11-07T06:43:59.780Z,18.99
2018-11-07T06:46:28.216Z,18.99
2018-11-07T06:48:56.743Z,19.00
2018-11-07T06:51:25.078Z,18.99
2018-11-07T06:53:53.364Z,18.99
2018-11-07T06:56:21.652Z,18.99
2018-11-07T06:58:49.967Z,19.00
2018-11-07T07:01:18.393Z,19.00
2018-11-07T07:03:46.661Z,19.01
2018-11-07T07:06:15.006Z,18.99
2018-11-07T07:08:43.327Z,19.00
2018-11-07T07:11:11.605Z,18.99
2018-11-07T07:13:39.934Z,18.99
2018-11-07T07:16:08.420Z,19.01
2018-11-07T07:18:36.781Z,19.01
2018-11-07T07:21:05.352Z,19.00
2018-11-07T07:23:34.758Z,19.01
2018-11-07T07:26:03.148Z,19.01
2018-11-07T07:28:31.537Z,19.02
2018-11-07T07:30:59.854Z,19.01
2018-11-07T07:33:28.193Z,19.00
2018-11-07T07:35:56.604Z,19.01
2018-11-07T07:38:24.908Z,19.01
2018-11-07T07:40:53.298Z,19.01
2018-11-07T07:43:21.642Z,19.03
2018-11-07T07:45:50.100Z,19.02
2018-11-07T07:48:19.462Z,19.03
2018-11-07T07:50:47.845Z,19.04
2018-11-07T07:53:16.247Z,19.05
2018-11-07T07:55:44.592Z,19.05
2018-11-07T07:58:12.925Z,19.06
2018-11-07T08:00:41.436Z,19.07
2018-11-07T08:03:09.724Z,19.08
2018-11-07T08:05:38.018Z,19.09
2018-11-07T08:08:06.468Z,19.09
2018-11-07T08:10:34.773Z,19.11
2018-11-07T08:13:07.744Z,19.12
2018-11-07T08:15:36.099Z,19.12
2018-11-07T08:18:04.430Z,19.12
2018-11-07T08:20:32.707Z,19.13
2018-11-07T08:23:01.036Z,19.16
2018-11-07T08:25:29.396Z,19.17
2018-11-07T08:27:57.728Z,19.17
2018-11-07T08:30:26.048Z,19.20
2018-11-07T08:32:54.349Z,19.19
2018-11-07T08:35:22.666Z,19.19
2018-11-07T08:37:51.000Z,19.21
2018-11-07T08:40:21.762Z,19.21
2018-11-07T08:42:50.339Z,19.24
2018-11-07T08:45:18.725Z,19.25
2018-11-07T08:47:47.652Z,19.25
2018-11-07T08:50:17.343Z,19.27
2018-11-07T08:52:46.432Z,19.28
2018-11-07T08:55:18.182Z,19.30
2018-11-07T08:57:46.549Z,19.30
2018-11-07T09:00:16.484Z,19.33
2018-11-07T09:02:45.097Z,19.35
2018-11-07T09:05:14.152Z,19.35
2018-11-07T09:07:43.191Z,19.36
2018-11-07T09:10:12.870Z,19.37
2018-11-07T09:12:45.843Z,19.39
2018-11-07T09:15:15.475Z,19.40
2018-11-07T09:17:43.832Z,19.43
2018-11-07T09:20:14.685Z,19.44
2018-11-07T09:22:43.098Z,19.46
2018-11-07T09:25:13.308Z,19.48
2018-11-07T09:27:41.986Z,19.50
2018-11-07T09:30:12.472Z,19.49
2018-11-07T09:32:40.884Z,19.53
2018-11-07T09:35:10.469Z,19.55
2018-11-07T09:37:38.776Z,19.55
2018-11-07T09:40:10.374Z,19.55
2018-11-07T09:42:39.720Z,19.58
2018-11-07T09:45:09.549Z,19.59
2018-11-07T09:47:37.988Z,19.59
2018-11-07T09:50:07.246Z,19.60
2018-11-07T09:52:35.622Z,19.61
2018-11-07T09:55:03.994Z,19.62
2018-11-07T09:57:32.256Z,19.64
2018-11-07T10:00:01.545Z,19.64
2018-11-07T10:02:29.880Z,19.65
2018-11-07T10:04:59.320Z,19.69
2018-11-07T10:07:27.634Z,19.69
2018-11-07T10:09:56.050Z,19.70
2018-11-07T10:12:25.303Z,19.73
2018-11-07T10:14:53.989Z,19.74
2018-11-07T10:17:22.363Z,19.76
2018-11-07T10:19:50.764Z,19.77
2018-11-07T10:22:19.103Z,19.78
2018-11-07T10:24:48.468Z,19.79
2018-11-07T10:27:16.992Z,19.80
2018-11-07T10:29:45.507Z,19.82
2018-11-07T10:32:13.575Z,19.84
2018-11-07T10:34:41.989Z,19.85
2018-11-07T10:37:10.275Z,19.87
2018-11-07T10:39:38.594Z,19.87
2018-11-07T10:42:07.007Z,19.89
2018-11-07T10:44:54.864Z,19.89
2018-11-07T10:50:11.165Z,19.93
2018-11-07T10:52:40.340Z,19.93
2018-11-07T10:55:11.641Z,19.95
2018-11-07T10:57:40.013Z,19.93
2018-11-07T11:00:15.176Z,19.96
2018-11-07T11:02:48.833Z,19.97
2018-11-07T11:05:18.532Z,19.97
2018-11-07T11:07:46.780Z,20.00
2018-11-07T11:10:15.326Z,20.01
2018-11-07T11:12:44.707Z,20.02
2018-11-07T11:15:13.066Z,20.03
2018-11-07T11:17:41.505Z,20.03
2018-11-07T11:20:11.776Z,20.04
2018-11-07T11:22:40.058Z,20.06
2018-11-07T11:25:08.402Z,20.08
2018-11-07T11:27:36.720Z,20.11
2018-11-07T11:30:05.341Z,20.13
2018-11-07T11:32:33.821Z,20.15
2018-11-07T11:35:02.850Z,20.17
2018-11-07T11:37:31.070Z,20.18
2018-11-07T11:39:59.625Z,20.20
2018-11-07T11:42:27.949Z,20.20
2018-11-07T11:44:56.243Z,20.24
2018-11-07T11:47:24.680Z,20.25
2018-11-07T11:49:52.972Z,20.27
2018-11-07T11:52:21.260Z,20.30
2018-11-07T11:54:49.576Z,20.32
2018-11-07T11:57:17.953Z,20.35
2018-11-07T11:59:46.428Z,20.37
2018-11-07T12:02:14.636Z,20.39
2018-11-07T12:04:42.800Z,20.42
2018-11-07T12:07:11.333Z,20.46
2018-11-07T12:09:39.648Z,20.46
2018-11-07T12:12:07.939Z,20.49
2018-11-07T12:14:36.167Z,20.50
2018-11-07T12:17:04.497Z,20.55
2018-11-07T12:19:33.803Z,20.57
2018-11-07T12:22:02.071Z,20.61
2018-11-07T12:24:30.360Z,20.66
2018-11-07T12:26:58.844Z,20.73
2018-11-07T12:29:27.094Z,20.76
2018-11-07T12:31:55.410Z,20.81
2018-11-07T12:34:23.778Z,20.89
2018-11-07T12:36:52.171Z,20.95
2018-11-07T12:39:32.799Z,21.01
2018-11-07T12:42:05.600Z,21.08
2018-11-07T12:44:37.129Z,21.14
2018-11-07T12:47:05.923Z,21.20
2018-11-07T12:49:34.412Z,21.26
2018-11-07T12:52:06.561Z,21.31
2018-11-07T12:54:38.153Z,21.35
2018-11-07T12:57:06.558Z,21.40
2018-11-07T12:59:35.002Z,21.45
2018-11-07T13:02:03.336Z,21.52
2018-11-07T13:04:31.709Z,21.56
2018-11-07T13:07:00.091Z,21.60
2018-11-07T13:09:28.366Z,21.64
2018-11-07T13:11:56.805Z,21.69
2018-11-07T13:14:25.077Z,21.76
2018-11-07T13:16:53.357Z,21.85
2018-11-07T13:19:21.698Z,21.93
2018-11-07T13:21:50.003Z,21.97
2018-11-07T13:24:18.422Z,22.00
2018-11-07T13:26:46.658Z,22.04
2018-11-07T13:29:14.961Z,22.08
2018-11-07T13:31:43.293Z,22.17
2018-11-07T13:34:11.646Z,22.21
2018-11-07T13:36:40.070Z,22.25
2018-11-07T13:39:10.226Z,22.31
2018-11-07T13:41:38.268Z,22.34
2018-11-07T13:44:07.658Z,22.37
2018-11-07T13:46:36.049Z,22.45
2018-11-07T13:49:06.780Z,22.46
2018-11-07T13:51:35.439Z,22.51
2018-11-07T13:54:03.845Z,22.52
2018-11-07T13:56:32.128Z,22.55
2018-11-07T13:59:00.453Z,22.57
2018-11-07T14:01:29.344Z,22.58
2018-11-07T14:03:57.681Z,22.62
2018-11-07T14:06:25.979Z,22.66
2018-11-07T14:08:54.368Z,22.64
2018-11-07T14:11:22.758Z,22.67
2018-11-07T14:13:51.166Z,22.68
2018-11-07T14:16:19.616Z,22.66
2018-11-07T14:18:47.985Z,22.66
2018-11-07T14:21:16.348Z,22.65
2018-11-07T14:23:44.836Z,22.67
2018-11-07T14:26:13.142Z,22.65
2018-11-07T14:28:41.529Z,22.64
2018-11-07T14:31:09.820Z,22.66
2018-11-07T14:33:38.103Z,22.72
2018-11-07T14:36:06.446Z,22.66
2018-11-07T14:38:34.849Z,22.69
2018-11-07T14:41:03.404Z,22.69
2018-11-07T14:43:31.843Z,22.74
2018-11-07T14:46:00.231Z,22.73
2018-11-07T14:48:28.511Z,22.76
2018-11-07T14:50:56.800Z,22.76
2018-11-07T14:53:25.301Z,22.83
2018-11-07T14:55:53.650Z,22.81
2018-11-07T14:58:23.155Z,22.39
2018-11-07T15:00:51.498Z,22.35
2018-11-07T15:03:21.082Z,21.83
2018-11-07T15:05:51.057Z,22.00
2018-11-07T15:08:19.544Z,22.18
2018-11-07T15:11:00.820Z,22.23
2018-11-07T15:13:29.268Z,22.29
2018-11-07T15:15:57.715Z,22.31
2018-11-07T15:18:26.156Z,22.35
2018-11-07T15:20:54.610Z,22.34
2018-11-07T15:23:22.920Z,22.37
2018-11-07T15:25:51.276Z,22.35
2018-11-07T15:28:19.614Z,22.34
2018-11-07T15:30:47.937Z,22.32
2018-11-07T15:33:16.410Z,22.31
2018-11-07T15:35:44.838Z,22.29
2018-11-07T15:38:13.200Z,22.28
2018-11-07T15:40:41.526Z,22.23
2018-11-07T15:43:09.967Z,22.22
2018-11-07T15:45:39.360Z,22.19
2018-11-07T15:48:12.118Z,22.16
2018-11-07T15:50:45.827Z,22.13
2018-11-07T15:53:14.250Z,22.08
2018-11-07T15:55:42.645Z,22.04
2018-11-07T15:58:12.679Z,22.00
2018-11-07T16:00:41.169Z,21.98
2018-11-07T16:03:09.710Z,21.94
2018-11-07T16:05:44.696Z,21.92
2018-11-07T16:08:13.075Z,21.90
2018-11-07T16:10:41.569Z,21.90
2018-11-07T16:13:09.891Z,21.93
2018-11-07T16:15:46.106Z,22.00
2018-11-07T16:18:15.080Z,22.13
2018-11-07T16:20:43.569Z,22.29
2018-11-07T16:23:11.902Z,22.43
2018-11-07T16:25:40.309Z,22.51
2018-11-07T16:28:08.626Z,22.58
2018-11-07T16:30:39.718Z,22.63
2018-11-07T16:33:08.045Z,22.65
2018-11-07T16:35:36.481Z,22.67
2018-11-07T16:38:09.502Z,22.66
2018-11-07T16:40:38.106Z,22.64
2018-11-07T16:43:06.518Z,22.61
2018-11-07T16:45:36.949Z,22.59
2018-11-07T16:48:05.557Z,22.54
2018-11-07T16:50:33.868Z,22.51
2018-11-07T16:53:02.101Z,22.48
2018-11-07T16:55:30.421Z,22.44
2018-11-07T16:57:58.702Z,22.40
2018-11-07T17:00:27.087Z,22.36
2018-11-07T17:02:55.401Z,22.31
2018-11-07T17:05:23.785Z,22.28
2018-11-07T17:07:52.027Z,22.22
2018-11-07T17:10:20.294Z,22.18
2018-11-07T17:12:48.564Z,22.14
2018-11-07T17:15:16.868Z,22.06
2018-11-07T17:17:45.140Z,22.02
2018-11-07T17:20:14.742Z,21.98
2018-11-07T17:22:43.291Z,21.92
2018-11-07T17:25:15.519Z,21.87
2018-11-07T17:27:44.008Z,21.78
2018-11-07T17:30:13.406Z,21.69
2018-11-07T17:32:41.713Z,21.63
2018-11-07T17:35:12.358Z,21.58
2018-11-07T17:37:42.564Z,21.53
2018-11-07T17:40:14.603Z,21.50
2018-11-07T17:42:43.074Z,21.46
2018-11-07T17:45:13.369Z,21.43
2018-11-07T17:47:42.420Z,21.38
2018-11-07T17:50:12.295Z,21.33
2018-11-07T17:52:40.831Z,21.30
2018-11-07T17:55:10.422Z,21.25
2018-11-07T17:57:38.809Z,21.21
2018-11-07T18:00:09.089Z,21.19
2018-11-07T18:02:37.478Z,21.13
2018-11-07T18:05:06.056Z,21.09
2018-11-07T18:07:34.579Z,21.06
2018-11-07T18:10:02.923Z,21.03
2018-11-07T18:12:31.300Z,21.00
2018-11-07T18:14:59.828Z,20.99
2018-11-07T18:17:28.202Z,20.95
2018-11-07T18:19:56.466Z,20.92
2018-11-07T18:22:24.816Z,20.90
2018-11-07T18:24:53.239Z,20.89
2018-11-07T18:27:21.590Z,20.90
2018-11-07T18:29:50.073Z,20.92
2018-11-07T18:32:20.654Z,20.93
2018-11-07T18:34:48.922Z,20.94
2018-11-07T18:37:17.274Z,20.96
2018-11-07T18:39:45.679Z,21.01
2018-11-07T18:42:14.033Z,21.06
2018-11-07T18:44:44.393Z,21.10
2018-11-07T18:47:12.779Z,21.14
2018-11-07T18:49:41.128Z,21.15
2018-11-07T18:52:09.471Z,21.19
2018-11-07T18:54:37.769Z,21.19
2018-11-07T18:57:06.156Z,21.21
2018-11-07T18:59:34.601Z,21.24
2018-11-07T19:02:02.927Z,21.24
2018-11-07T19:04:31.328Z,21.23
2018-11-07T19:06:59.628Z,21.23
2018-11-07T19:09:27.882Z,21.22
2018-11-07T19:11:56.234Z,21.21
2018-11-07T19:14:24.584Z,21.19
2018-11-07T19:16:52.950Z,21.16
2018-11-07T19:19:21.237Z,21.15
2018-11-07T19:21:49.526Z,21.12
2018-11-07T19:24:17.976Z,21.09
2018-11-07T19:26:46.385Z,21.07
2018-11-07T19:29:14.696Z,21.04
2018-11-07T19:31:42.974Z,21.01
2018-11-07T19:34:11.303Z,20.98
2018-11-07T19:36:39.637Z,20.94
2018-11-07T19:39:08.877Z,20.91
2018-11-07T19:41:37.669Z,20.87
2018-11-07T19:44:06.036Z,20.85
2018-11-07T19:46:34.396Z,20.82
2018-11-07T19:49:04.872Z,20.80
2018-11-07T19:51:33.238Z,20.77
2018-11-07T19:54:02.716Z,20.75
2018-11-07T19:56:30.963Z,20.71
2018-11-07T19:59:01.385Z,20.70
2018-11-07T20:01:37.072Z,20.68
2018-11-07T20:04:05.839Z,20.66
2018-11-07T20:06:36.157Z,20.65
2018-11-07T20:09:06.924Z,20.61
2018-11-07T20:11:38.520Z,20.61
2018-11-07T20:14:07.007Z,20.59
2018-11-07T20:16:35.455Z,20.57
2018-11-07T20:19:03.768Z,20.56
2018-11-07T20:21:32.157Z,20.55
2018-11-07T20:24:01.645Z,20.55
2018-11-07T20:26:30.007Z,20.55
2018-11-07T20:28:58.302Z,20.54
2018-11-07T20:31:27.635Z,20.53
2018-11-07T20:33:56.306Z,20.52
2018-11-07T20:36:24.624Z,20.51
2018-11-07T20:38:52.930Z,20.50
2018-11-07T20:41:21.268Z,20.48
2018-11-07T20:43:49.512Z,20.47
2018-11-07T20:46:17.917Z,20.46
2018-11-07T20:48:46.279Z,20.44
2018-11-07T20:51:14.598Z,20.43
2018-11-07T20:53:42.970Z,20.43
2018-11-07T20:56:11.407Z,20.41
2018-11-07T20:58:39.667Z,20.40
2018-11-07T21:01:08.048Z,20.40
2018-11-07T21:03:36.322Z,20.39
2018-11-07T21:06:04.746Z,20.38
2018-11-07T21:08:33.197Z,20.36
2018-11-07T21:11:01.506Z,20.35
2018-11-07T21:13:29.805Z,20.34
2018-11-07T21:15:58.392Z,20.34
2018-11-07T21:18:26.704Z,20.32
2018-11-07T21:20:55.094Z,20.32
2018-11-07T21:23:23.411Z,20.30
2018-11-07T21:25:51.772Z,20.29
2018-11-07T21:28:20.178Z,20.29
2018-11-07T21:30:48.574Z,20.28
2018-11-07T21:33:16.983Z,20.27
2018-11-07T21:35:45.261Z,20.27
2018-11-07T21:38:14.648Z,20.26
2018-11-07T21:40:42.981Z,20.25
2018-11-07T21:43:11.272Z,20.24
2018-11-07T21:45:39.575Z,20.23
2018-11-07T21:48:08.010Z,20.24
2018-11-07T21:50:36.727Z,20.23
2018-11-07T21:53:05.345Z,20.23
2018-11-07T21:55:33.676Z,20.21
2018-11-07T21:58:02.984Z,20.19
2018-11-07T22:00:31.407Z,20.19
2018-11-07T22:02:59.886Z,20.18
2018-11-07T22:05:28.263Z,20.18
2018-11-07T22:07:56.597Z,20.18
2018-11-07T22:10:25.056Z,20.17
2018-11-07T22:12:56.836Z,20.18
2018-11-07T22:15:25.088Z,20.16
2018-11-07T22:17:53.358Z,20.16
2018-11-07T22:20:22.304Z,20.16
2018-11-07T22:22:50.557Z,20.15
2018-11-07T22:25:18.815Z,20.14
2018-11-07T22:27:47.164Z,20.14
2018-11-07T22:30:16.655Z,20.14
2018-11-07T22:32:44.979Z,20.13
2018-11-07T22:35:14.580Z,20.11
2018-11-07T22:37:43.314Z,20.10
2018-11-07T22:40:13.017Z,20.09
2018-11-07T22:42:41.338Z,20.08
2018-11-07T22:45:10.589Z,20.07
2018-11-07T22:47:39.192Z,20.07
2018-11-07T22:50:10.089Z,20.07
2018-11-07T22:52:38.406Z,20.06
2018-11-07T22:55:07.206Z,20.07
2018-11-07T22:57:35.718Z,20.06
2018-11-07T23:00:05.168Z,20.07
2018-11-07T23:02:33.490Z,20.06
2018-11-07T23:05:01.804Z,20.05
2018-11-07T23:07:30.060Z,20.05
2018-11-07T23:09:58.323Z,20.05
2018-11-07T23:12:26.672Z,20.05
2018-11-07T23:14:55.033Z,20.04
2018-11-07T23:17:23.467Z,20.04
2018-11-07T23:19:51.831Z,20.02
2018-11-07T23:22:20.120Z,20.03
2018-11-07T23:24:48.433Z,20.01
2018-11-07T23:27:16.777Z,20.01
2018-11-07T23:29:45.260Z,19.98
2018-11-07T23:32:13.562Z,19.95
2018-11-07T23:34:41.873Z,19.95
2018-11-07T23:37:10.207Z,19.94
2018-11-07T23:39:38.519Z,19.94
2018-11-07T23:42:06.843Z,19.93
2018-11-07T23:44:35.199Z,19.91
2018-11-07T23:47:03.635Z,19.93
2018-11-07T23:49:32.002Z,19.91
2018-11-07T23:52:01.347Z,19.92
2018-11-07T23:54:29.690Z,19.90
2018-11-07T23:56:58.003Z,19.91
2018-11-07T23:59:26.420Z,19.91
